Scotland, Indiana
Current Conditions -  °F | °C
As of 11:15 PM on Tuesday 21 Oct 2014 (Local Time) from KDCY Reporting Station
Clear Clear  
Wind Chill: 45°   Ceiling: Unl
Heat Index: 45°   Visibility: 10mi
Dew Point: 42°   Wind: 3mph
Humidity: 90%   Direction: 360°N
Pressure: 30.19"   Gusts: NA
Location:  38.91°N, 86.9°W
Report Text: KDCY 220315Z AUTO 36003KT 10SM CLR 07/06 A3019 RMK AO2 T00710055
Loading
Personal Weather Stations






























Interactive Weather Map
Tropical Storm Tracking
New forecast layout! Learn more

10-Day Weather Forecast

Advertisements
Track Severe Weather on mobile